Parksville, Canada
Current Conditions -  °F | °C
As of 9:00 PM on Wednesday 22 Oct 2014 (Local Time) from CYCD Reporting Station
Light Rain Light Rain  
Wind Chill: 52°   Ceiling: 3000
Heat Index: 52°   Visibility: 6mi
Dew Point: 50°   Wind: 6mph
Humidity: 94%   Direction: 360°N
Pressure: 29.47"   Gusts: NA
Location:  49.32°N, 124.31°W
Report Text: CYCD 230400Z 36005KT 290V010 6SM -RA BR FEW004 SCT020 BKN030 OVC060 11/10 A2947 RMK SF1SC3SC2SC2 LAST OBS/NEXT 231300 UTC PRESFR SLP981 DENSITY ALT 100FT
Loading
Personal Weather Stations






























Interactive Weather Map
Tropical Storm Tracking
New forecast layout! Learn more

10-Day Weather Forecast

Advertisements
Track Severe Weather on mobile